Terminal Aerodrome Forecast
Issued by NWS Blacksburg, VA

Current Version | Previous Version | Graphics & Text | Print | Product List | Glossary On
Versions: 1 2 3 4 5 6 7 8 9 10 11 12 13 14
000
FTUS41 KRNK 272331
TAFBLF
TAF
KBLF 272331Z 2800/2824 VRB03KT P6SM BKN060
     FM280700 VRB03KT P6SM SCT050
     FM281500 15004KT P6SM BKN100=

USA.gov is the U.S. government's official web portal to all federal, state and local government web resources and services.